F/V L'atlantique — FHVX — position and weather

sailwx.info

Track history (hours):
 
Tides and Currents Weather Stations Pressure Air Temp Water Temp Dewpoint Dewpoint Depression Visibility Wind Speed Wind Dir Waves Ship Positions

F/V L'atlantique

Last reported at 2017-Sep-20 13:58 UTC. Time now 2017-Sep-20 18:38 UTC.
Position N 47°49' W 004°24'.

Length 16 m; draft 3 m.

Type: Other ship. MMSI: 228333000.

Date/timePositionNaut miles runAvg speedWind from/ knotsBaromVisibWave heightAir tempDewpointWater temp
2017-Sep-20 13:58N 47°49' W 004°24'8 8.6
2017-Sep-20 13:01N 47°53' W 004°34'0 7.6
2017-Sep-20 12:58N 47°53' W 004°35'2 2.6
2017-Sep-20 12:21N 47°54' W 004°37'3 3.1
2017-Sep-20 11:31N 47°54' W 004°41'0 2.7
2017-Sep-20 11:30N 47°54' W 004°41'1 1.8
2017-Sep-20 11:00N 47°55' W 004°42'2 3.0
2017-Sep-20 10:26N 47°55' W 004°39'2 3.0
2017-Sep-20 09:53N 47°57' W 004°39'2 6.1
2017-Sep-20 09:30N 47°58' W 004°41'4 8.1
2017-Sep-20 09:00N 48°01' W 004°45'4 9.0
2017-Sep-20 08:31N 48°04' W 004°50'5 9.2
2017-Sep-20 08:00N 48°08' W 004°54'4 4.4
2017-Sep-20 07:03N 48°10' W 004°60'0 3.0
2017-Sep-20 07:00N 48°10' W 005°00'1 1.9
2017-Sep-20 06:30N 48°11' W 005°00'2 3.3
2017-Sep-20 06:00N 48°12' W 004°58'2 3.0
2017-Sep-20 05:30N 48°13' W 004°57'2 3.7
2017-Sep-20 05:01N 48°15' W 004°57'1 1.9
2017-Sep-20 04:30N 48°14' W 004°58'2 3.1
2017-Sep-20 04:00N 48°13' W 004°58'1 2.8
2017-Sep-20 03:30N 48°14' W 004°57'1 2.9
2017-Sep-20 03:01N 48°15' W 004°56'1 2.6
2017-Sep-20 02:31N 48°16' W 004°56'0 1.0
2017-Sep-20 02:00N 48°17' W 004°57'2 3.3
2017-Sep-20 01:30N 48°15' W 004°58'2 3.6
2017-Sep-20 01:00N 48°14' W 004°58'1 1.5
2017-Sep-20 00:31N 48°13' W 004°58'1 2.6
2017-Sep-20 00:00N 48°14' W 004°57'1 2.8
2017-Sep-19 23:31N 48°16' W 004°57'1 2.0
2017-Sep-19 23:00N 48°16' W 004°56'2 3.5
2017-Sep-19 22:30N 48°14' W 004°56'1 2.9
2017-Sep-19 22:00N 48°13' W 004°58'2 3.1
2017-Sep-19 21:30N 48°15' W 004°58'2 3.2
2017-Sep-19 21:00N 48°16' W 004°57'1 2.5
2017-Sep-19 20:30N 48°16' W 004°56'1 2.9
2017-Sep-19 20:00N 48°14' W 004°56'1 2.7
2017-Sep-19 19:30N 48°13' W 004°57'1 1.5
2017-Sep-19 19:00N 48°12' W 004°56'1 2.3
2017-Sep-19 18:31N 48°13' W 004°58'2 3.0
2017-Sep-19 17:53N 48°13' W 005°01'1 2.8
2017-Sep-19 17:30N 48°12' W 005°02'1 2.8
2017-Sep-19 17:01N 48°12' W 005°04'1 2.7
2017-Sep-19 16:30N 48°11' W 005°02'1 2.8
2017-Sep-19 16:00N 48°12' W 004°60'1 2.8
2017-Sep-19 15:31N 48°12' W 004°58'1 2.9
2017-Sep-19 15:00N 48°13' W 004°57'1 1.9
2017-Sep-19 14:29N 48°13' W 004°59'1 2.3
2017-Sep-19 14:00N 48°14' W 004°57'1 2.9
2017-Sep-19 13:30N 48°15' W 004°56'1 2.3
2017-Sep-19 13:00N 48°16' W 004°56'1 2.6
2017-Sep-19 12:30N 48°16' W 004°58'2 3.8
2017-Sep-19 12:00N 48°14' W 004°58'1 1.9
2017-Sep-19 11:30N 48°13' W 004°58'1 2.8
2017-Sep-19 11:00N 48°14' W 004°57'1 2.7
2017-Sep-19 10:30N 48°15' W 004°56'2 3.3
2017-Sep-19 10:00N 48°17' W 004°57'1 1.8
2017-Sep-19 09:30N 48°16' W 004°57'2 3.3
2017-Sep-19 09:00N 48°14' W 004°57'1 2.6
2017-Sep-19 08:30N 48°13' W 004°57'2 3.1
2017-Sep-19 08:01N 48°14' W 004°58'2 3.6
2017-Sep-19 07:31N 48°16' W 004°58'1 2.5
2017-Sep-19 07:00N 48°16' W 004°56'2 3.1
2017-Sep-19 06:31N 48°15' W 004°53'1 2.3
2017-Sep-19 06:00N 48°14' W 004°53'1 3.0
2017-Sep-19 05:30N 48°13' W 004°55'2 4.1
2017-Sep-19 05:00N 48°11' W 004°55'4 8.1
2017-Sep-19 04:30N 48°07' W 004°52'4 8.3
2017-Sep-19 04:01N 48°04' W 004°49'3 6.1
2017-Sep-19 03:30N 48°01' W 004°46'3 6.4
2017-Sep-19 03:00N 47°59' W 004°42'17 8.2
2017-Sep-19 00:59N 47°49' W 004°23'24 1.2
2017-Sep-18 05:09N 47°43' W 004°59'1 3.9
2017-Sep-18 04:56N 47°43' W 004°60'2 3.0
2017-Sep-18 04:10N 47°46' W 005°01'1 3.5
2017-Sep-18 04:00N 47°46' W 005°01'2 2.8
2017-Sep-18 03:23N 47°45' W 004°59'1 2.2
2017-Sep-18 02:53N 47°45' W 004°57'2 1.2
2017-Sep-18 01:21N 47°44' W 004°59'1 3.1
2017-Sep-18 00:57N 47°45' W 005°01'1 2.3
2017-Sep-18 00:27N 47°46' W 005°01'2 3.2
2017-Sep-17 23:56N 47°45' W 004°59'1 3.2
2017-Sep-17 23:27N 47°45' W 004°56'2 3.5
2017-Sep-17 22:59N 47°46' W 004°54'3 6.5
2017-Sep-17 22:30N 47°49' W 004°52'4 8.1
2017-Sep-17 22:00N 47°52' W 004°51'4 7.8
2017-Sep-17 21:30N 47°56' W 004°49'4 7.9
2017-Sep-17 21:00N 47°60' W 004°48'3 6.3
2017-Sep-17 20:31N 48°03' W 004°49'4 8.7
2017-Sep-17 20:01N 48°06' W 004°53'4 0.1
2017-Sep-16 04:48N 48°09' W 004°58'2 7.8
2017-Sep-16 04:31N 48°07' W 004°56'4 7.8
2017-Sep-16 04:00N 48°05' W 004°51'4 7.1
2017-Sep-16 03:30N 48°02' W 004°47'3 6.0
2017-Sep-16 03:00N 48°01' W 004°44'4 7.2
2017-Sep-16 02:30N 47°58' W 004°40'13 1.0
2017-Sep-15 13:43N 47°49' W 004°27'3 3.2
2017-Sep-15 12:43N 47°49' W 004°32'2 1.1
2017-Sep-15 10:53N 47°49' W 004°35'1 0.5
2017-Sep-15 08:53N 47°50' W 004°35'1 0.3
2017-Sep-15 06:48N 47°50' W 004°35'2 1.2
2017-Sep-15 04:48N 47°51' W 004°31'6 5.7
2017-Sep-15 03:43N 47°49' W 004°23'11 0.3
2017-Sep-13 07:47N 47°57' W 004°35'1 3.6
2017-Sep-13 07:30N 47°57' W 004°36'2 3.3
2017-Sep-13 06:58N 47°57' W 004°39'1 0.7
2017-Sep-13 05:33N 47°56' W 004°39'1 2.8
2017-Sep-13 05:09N 47°57' W 004°38'1 3.1
2017-Sep-13 04:56N 47°57' W 004°37'12 5.4
2017-Sep-13 02:38N 47°49' W 004°24'9 0.7
2017-Sep-12 13:49N 47°55' W 004°33'2 4.4
2017-Sep-12 13:28N 47°56' W 004°35'1 3.0
2017-Sep-12 13:00N 47°57' W 004°36'12 1.1
2017-Sep-12 02:33N 47°49' W 004°24'  
Track history (hours):
 
Tides and Currents Weather Stations Pressure Air Temp Water Temp Dewpoint Dewpoint Depression Visibility Wind Speed Wind Dir Waves Ship Positions

F/V L'atlantique

Last reported at 2017-Sep-20 13:58 UTC. Time now 2017-Sep-20 18:38 UTC.
Position N 47°49' W 004°24'.

Length 16 m; draft 3 m.

Type: Other ship. MMSI: 228333000.

Date/timePositionNaut miles runAvg speedWind from/ knotsBaromVisibWave heightAir tempDewpointWater temp
2017-Sep-20 13:58N 47°49' W 004°24'8 8.6
2017-Sep-20 13:01N 47°53' W 004°34'0 7.6
2017-Sep-20 12:58N 47°53' W 004°35'2 2.6
2017-Sep-20 12:21N 47°54' W 004°37'3 3.1
2017-Sep-20 11:31N 47°54' W 004°41'0 2.7
2017-Sep-20 11:30N 47°54' W 004°41'1 1.8
2017-Sep-20 11:00N 47°55' W 004°42'2 3.0
2017-Sep-20 10:26N 47°55' W 004°39'2 3.0
2017-Sep-20 09:53N 47°57' W 004°39'2 6.1
2017-Sep-20 09:30N 47°58' W 004°41'4 8.1
2017-Sep-20 09:00N 48°01' W 004°45'4 9.0
2017-Sep-20 08:31N 48°04' W 004°50'5 9.2
2017-Sep-20 08:00N 48°08' W 004°54'4 4.4
2017-Sep-20 07:03N 48°10' W 004°60'0 3.0
2017-Sep-20 07:00N 48°10' W 005°00'1 1.9
2017-Sep-20 06:30N 48°11' W 005°00'2 3.3
2017-Sep-20 06:00N 48°12' W 004°58'2 3.0
2017-Sep-20 05:30N 48°13' W 004°57'2 3.7
2017-Sep-20 05:01N 48°15' W 004°57'1 1.9
2017-Sep-20 04:30N 48°14' W 004°58'2 3.1
2017-Sep-20 04:00N 48°13' W 004°58'1 2.8
2017-Sep-20 03:30N 48°14' W 004°57'1 2.9
2017-Sep-20 03:01N 48°15' W 004°56'1 2.6
2017-Sep-20 02:31N 48°16' W 004°56'0 1.0
2017-Sep-20 02:00N 48°17' W 004°57'2 3.3
2017-Sep-20 01:30N 48°15' W 004°58'2 3.6
2017-Sep-20 01:00N 48°14' W 004°58'1 1.5
2017-Sep-20 00:31N 48°13' W 004°58'1 2.6
2017-Sep-20 00:00N 48°14' W 004°57'1 2.8
2017-Sep-19 23:31N 48°16' W 004°57'1 2.0
2017-Sep-19 23:00N 48°16' W 004°56'2 3.5
2017-Sep-19 22:30N 48°14' W 004°56'1 2.9
2017-Sep-19 22:00N 48°13' W 004°58'2 3.1
2017-Sep-19 21:30N 48°15' W 004°58'2 3.2
2017-Sep-19 21:00N 48°16' W 004°57'1 2.5
2017-Sep-19 20:30N 48°16' W 004°56'1 2.9
2017-Sep-19 20:00N 48°14' W 004°56'1 2.7
2017-Sep-19 19:30N 48°13' W 004°57'1 1.5
2017-Sep-19 19:00N 48°12' W 004°56'1 2.3
2017-Sep-19 18:31N 48°13' W 004°58'2 3.0
2017-Sep-19 17:53N 48°13' W 005°01'1 2.8
2017-Sep-19 17:30N 48°12' W 005°02'1 2.8
2017-Sep-19 17:01N 48°12' W 005°04'1 2.7
2017-Sep-19 16:30N 48°11' W 005°02'1 2.8
2017-Sep-19 16:00N 48°12' W 004°60'1 2.8
2017-Sep-19 15:31N 48°12' W 004°58'1 2.9
2017-Sep-19 15:00N 48°13' W 004°57'1 1.9
2017-Sep-19 14:29N 48°13' W 004°59'1 2.3
2017-Sep-19 14:00N 48°14' W 004°57'1 2.9
2017-Sep-19 13:30N 48°15' W 004°56'1 2.3
2017-Sep-19 13:00N 48°16' W 004°56'1 2.6
2017-Sep-19 12:30N 48°16' W 004°58'2 3.8
2017-Sep-19 12:00N 48°14' W 004°58'1 1.9
2017-Sep-19 11:30N 48°13' W 004°58'1 2.8
2017-Sep-19 11:00N 48°14' W 004°57'1 2.7
2017-Sep-19 10:30N 48°15' W 004°56'2 3.3
2017-Sep-19 10:00N 48°17' W 004°57'1 1.8
2017-Sep-19 09:30N 48°16' W 004°57'2 3.3
2017-Sep-19 09:00N 48°14' W 004°57'1 2.6
2017-Sep-19 08:30N 48°13' W 004°57'2 3.1
2017-Sep-19 08:01N 48°14' W 004°58'2 3.6
2017-Sep-19 07:31N 48°16' W 004°58'1 2.5
2017-Sep-19 07:00N 48°16' W 004°56'2 3.1
2017-Sep-19 06:31N 48°15' W 004°53'1 2.3
2017-Sep-19 06:00N 48°14' W 004°53'1 3.0
2017-Sep-19 05:30N 48°13' W 004°55'2 4.1
2017-Sep-19 05:00N 48°11' W 004°55'4 8.1
2017-Sep-19 04:30N 48°07' W 004°52'4 8.3
2017-Sep-19 04:01N 48°04' W 004°49'3 6.1
2017-Sep-19 03:30N 48°01' W 004°46'3 6.4
2017-Sep-19 03:00N 47°59' W 004°42'17 8.2
2017-Sep-19 00:59N 47°49' W 004°23'24 1.2
2017-Sep-18 05:09N 47°43' W 004°59'1 3.9
2017-Sep-18 04:56N 47°43' W 004°60'2 3.0
2017-Sep-18 04:10N 47°46' W 005°01'1 3.5
2017-Sep-18 04:00N 47°46' W 005°01'2 2.8
2017-Sep-18 03:23N 47°45' W 004°59'1 2.2
2017-Sep-18 02:53N 47°45' W 004°57'2 1.2
2017-Sep-18 01:21N 47°44' W 004°59'1 3.1
2017-Sep-18 00:57N 47°45' W 005°01'1 2.3
2017-Sep-18 00:27N 47°46' W 005°01'2 3.2
2017-Sep-17 23:56N 47°45' W 004°59'1 3.2
2017-Sep-17 23:27N 47°45' W 004°56'2 3.5
2017-Sep-17 22:59N 47°46' W 004°54'3 6.5
2017-Sep-17 22:30N 47°49' W 004°52'4 8.1
2017-Sep-17 22:00N 47°52' W 004°51'4 7.8
2017-Sep-17 21:30N 47°56' W 004°49'4 7.9
2017-Sep-17 21:00N 47°60' W 004°48'3 6.3
2017-Sep-17 20:31N 48°03' W 004°49'4 8.7
2017-Sep-17 20:01N 48°06' W 004°53'4 0.1
2017-Sep-16 04:48N 48°09' W 004°58'2 7.8
2017-Sep-16 04:31N 48°07' W 004°56'4 7.8
2017-Sep-16 04:00N 48°05' W 004°51'4 7.1
2017-Sep-16 03:30N 48°02' W 004°47'3 6.0
2017-Sep-16 03:00N 48°01' W 004°44'4 7.2
2017-Sep-16 02:30N 47°58' W 004°40'13 1.0
2017-Sep-15 13:43N 47°49' W 004°27'3 3.2
2017-Sep-15 12:43N 47°49' W 004°32'2 1.1
2017-Sep-15 10:53N 47°49' W 004°35'1 0.5
2017-Sep-15 08:53N 47°50' W 004°35'1 0.3
2017-Sep-15 06:48N 47°50' W 004°35'2 1.2
2017-Sep-15 04:48N 47°51' W 004°31'6 5.7
2017-Sep-15 03:43N 47°49' W 004°23'11 0.3
2017-Sep-13 07:47N 47°57' W 004°35'1 3.6
2017-Sep-13 07:30N 47°57' W 004°36'2 3.3
2017-Sep-13 06:58N 47°57' W 004°39'1 0.7
2017-Sep-13 05:33N 47°56' W 004°39'1 2.8
2017-Sep-13 05:09N 47°57' W 004°38'1 3.1
2017-Sep-13 04:56N 47°57' W 004°37'12 5.4
2017-Sep-13 02:38N 47°49' W 004°24'9 0.7
2017-Sep-12 13:49N 47°55' W 004°33'2 4.4
2017-Sep-12 13:28N 47°56' W 004°35'1 3.0
2017-Sep-12 13:00N 47°57' W 004°36'12 1.1
2017-Sep-12 02:33N 47°49' W 004°24'  

Dump ship's entire track history